sensor_id;sensor_type;location;lat;lon;timestamp;P1;durP1;ratioP1;P2;durP2;ratioP2
53245;SDS011;39569;51.090;-1.786;2023-07-09T00:02:11;28.23;;;7.00;;
53245;SDS011;39569;51.090;-1.786;2023-07-09T00:04:39;27.92;;;8.07;;
53245;SDS011;39569;51.090;-1.786;2023-07-09T00:07:12;19.17;;;8.02;;
53245;SDS011;39569;51.090;-1.786;2023-07-09T00:09:43;26.42;;;8.05;;
53245;SDS011;39569;51.090;-1.786;2023-07-09T00:12:11;26.50;;;8.63;;
53245;SDS011;39569;51.090;-1.786;2023-07-09T00:14:42;28.05;;;7.18;;
53245;SDS011;39569;51.090;-1.786;2023-07-09T00:17:10;27.77;;;9.63;;
53245;SDS011;39569;51.090;-1.786;2023-07-09T00:19:37;22.40;;;7.53;;
53245;SDS011;39569;51.090;-1.786;2023-07-09T00:22:10;15.07;;;7.00;;
53245;SDS011;39569;51.090;-1.786;2023-07-09T00:24:42;45.97;;;8.25;;
53245;SDS011;39569;51.090;-1.786;2023-07-09T00:27:10;27.00;;;9.15;;
53245;SDS011;39569;51.090;-1.786;2023-07-09T00:29:38;17.85;;;7.75;;
53245;SDS011;39569;51.090;-1.786;2023-07-09T00:32:08;32.30;;;9.35;;
53245;SDS011;39569;51.090;-1.786;2023-07-09T00:34:40;19.27;;;7.97;;
53245;SDS011;39569;51.090;-1.786;2023-07-09T00:37:11;27.42;;;6.35;;
53245;SDS011;39569;51.090;-1.786;2023-07-09T00:39:38;15.32;;;6.65;;
53245;SDS011;39569;51.090;-1.786;2023-07-09T00:42:09;24.38;;;8.25;;
53245;SDS011;39569;51.090;-1.786;2023-07-09T00:44:43;25.85;;;8.63;;
53245;SDS011;39569;51.090;-1.786;2023-07-09T00:47:18;28.17;;;8.73;;
53245;SDS011;39569;51.090;-1.786;2023-07-09T00:49:51;21.88;;;7.53;;
53245;SDS011;39569;51.090;-1.786;2023-07-09T00:52:28;22.27;;;7.35;;
53245;SDS011;39569;51.090;-1.786;2023-07-09T00:55:00;27.52;;;7.07;;
53245;SDS011;39569;51.090;-1.786;2023-07-09T00:57:32;27.02;;;8.02;;
53245;SDS011;39569;51.090;-1.786;2023-07-09T01:00:04;25.77;;;6.78;;
53245;SDS011;39569;51.090;-1.786;2023-07-09T01:02:36;20.65;;;7.40;;
53245;SDS011;39569;51.090;-1.786;2023-07-09T01:05:03;38.88;;;7.18;;
53245;SDS011;39569;51.090;-1.786;2023-07-09T01:07:32;20.85;;;5.95;;
53245;SDS011;39569;51.090;-1.786;2023-07-09T01:09:59;22.20;;;6.88;;
53245;SDS011;39569;51.090;-1.786;2023-07-09T01:12:26;15.60;;;5.97;;
53245;SDS011;39569;51.090;-1.786;2023-07-09T01:14:53;20.25;;;6.28;;
53245;SDS011;39569;51.090;-1.786;2023-07-09T01:17:24;22.30;;;7.32;;
53245;SDS011;39569;51.090;-1.786;2023-07-09T01:19:53;24.23;;;6.68;;
53245;SDS011;39569;51.090;-1.786;2023-07-09T01:22:22;14.13;;;5.65;;
53245;SDS011;39569;51.090;-1.786;2023-07-09T01:24:51;23.00;;;6.80;;
53245;SDS011;39569;51.090;-1.786;2023-07-09T01:27:22;26.65;;;6.75;;
53245;SDS011;39569;51.090;-1.786;2023-07-09T01:29:51;22.92;;;6.63;;
53245;SDS011;39569;51.090;-1.786;2023-07-09T01:32:20;24.20;;;6.97;;
53245;SDS011;39569;51.090;-1.786;2023-07-09T01:34:48;17.10;;;4.97;;
53245;SDS011;39569;51.090;-1.786;2023-07-09T01:37:18;21.85;;;7.95;;
53245;SDS011;39569;51.090;-1.786;2023-07-09T01:39:49;21.77;;;5.07;;
53245;SDS011;39569;51.090;-1.786;2023-07-09T01:42:16;17.05;;;6.03;;
53245;SDS011;39569;51.090;-1.786;2023-07-09T01:44:43;20.45;;;6.22;;
53245;SDS011;39569;51.090;-1.786;2023-07-09T01:47:11;24.05;;;5.00;;
53245;SDS011;39569;51.090;-1.786;2023-07-09T01:49:37;13.93;;;5.60;;
53245;SDS011;39569;51.090;-1.786;2023-07-09T01:52:05;23.27;;;6.90;;
53245;SDS011;39569;51.090;-1.786;2023-07-09T01:54:33;21.83;;;6.57;;
53245;SDS011;39569;51.090;-1.786;2023-07-09T01:57:14;16.10;;;7.20;;
53245;SDS011;39569;51.090;-1.786;2023-07-09T01:59:44;27.60;;;7.15;;
53245;SDS011;39569;51.090;-1.786;2023-07-09T02:02:11;24.50;;;6.45;;
53245;SDS011;39569;51.090;-1.786;2023-07-09T02:04:44;16.25;;;7.03;;
53245;SDS011;39569;51.090;-1.786;2023-07-09T02:07:15;20.77;;;6.32;;
53245;SDS011;39569;51.090;-1.786;2023-07-09T02:09:42;34.25;;;7.22;;
53245;SDS011;39569;51.090;-1.786;2023-07-09T02:12:09;13.43;;;6.15;;
53245;SDS011;39569;51.090;-1.786;2023-07-09T02:14:39;24.70;;;5.60;;
53245;SDS011;39569;51.090;-1.786;2023-07-09T02:17:07;30.13;;;7.40;;
53245;SDS011;39569;51.090;-1.786;2023-07-09T02:19:35;14.15;;;6.45;;
53245;SDS011;39569;51.090;-1.786;2023-07-09T02:22:02;12.55;;;6.10;;
53245;SDS011;39569;51.090;-1.786;2023-07-09T02:24:29;14.00;;;5.40;;
53245;SDS011;39569;51.090;-1.786;2023-07-09T02:26:55;19.35;;;6.15;;
53245;SDS011;39569;51.090;-1.786;2023-07-09T02:29:23;17.08;;;5.45;;
53245;SDS011;39569;51.090;-1.786;2023-07-09T02:31:54;21.00;;;6.82;;
53245;SDS011;39569;51.090;-1.786;2023-07-09T02:34:22;8.25;;;5.07;;
53245;SDS011;39569;51.090;-1.786;2023-07-09T02:36:51;19.90;;;6.00;;
53245;SDS011;39569;51.090;-1.786;2023-07-09T02:39:18;16.75;;;5.45;;
53245;SDS011;39569;51.090;-1.786;2023-07-09T02:41:45;21.77;;;5.95;;
53245;SDS011;39569;51.090;-1.786;2023-07-09T02:44:12;18.58;;;7.80;;
53245;SDS011;39569;51.090;-1.786;2023-07-09T02:46:39;16.90;;;6.70;;
53245;SDS011;39569;51.090;-1.786;2023-07-09T02:49:09;18.50;;;7.45;;
53245;SDS011;39569;51.090;-1.786;2023-07-09T02:51:37;34.80;;;9.02;;
53245;SDS011;39569;51.090;-1.786;2023-07-09T02:54:04;25.15;;;9.13;;
53245;SDS011;39569;51.090;-1.786;2023-07-09T02:56:31;24.88;;;9.50;;
53245;SDS011;39569;51.090;-1.786;2023-07-09T02:58:59;18.85;;;7.50;;
53245;SDS011;39569;51.090;-1.786;2023-07-09T03:01:26;41.95;;;8.07;;
53245;SDS011;39569;51.090;-1.786;2023-07-09T03:03:53;11.90;;;7.57;;
53245;SDS011;39569;51.090;-1.786;2023-07-09T03:06:22;15.90;;;6.60;;
53245;SDS011;39569;51.090;-1.786;2023-07-09T03:08:50;9.68;;;5.85;;
53245;SDS011;39569;51.090;-1.786;2023-07-09T03:11:18;12.15;;;5.75;;
53245;SDS011;39569;51.090;-1.786;2023-07-09T03:13:46;8.88;;;5.75;;
53245;SDS011;39569;51.090;-1.786;2023-07-09T03:16:13;16.42;;;6.22;;
53245;SDS011;39569;51.090;-1.786;2023-07-09T03:18:41;11.05;;;4.75;;
53245;SDS011;39569;51.090;-1.786;2023-07-09T03:21:08;16.33;;;5.43;;
53245;SDS011;39569;51.090;-1.786;2023-07-09T03:23:36;21.90;;;6.88;;
53245;SDS011;39569;51.090;-1.786;2023-07-09T03:26:03;15.98;;;5.28;;
53245;SDS011;39569;51.090;-1.786;2023-07-09T03:28:30;18.05;;;5.22;;
53245;SDS011;39569;51.090;-1.786;2023-07-09T03:30:58;14.35;;;5.57;;
53245;SDS011;39569;51.090;-1.786;2023-07-09T03:33:25;10.13;;;5.45;;
53245;SDS011;39569;51.090;-1.786;2023-07-09T03:35:52;11.77;;;5.75;;
53245;SDS011;39569;51.090;-1.786;2023-07-09T03:38:18;7.95;;;6.40;;
53245;SDS011;39569;51.090;-1.786;2023-07-09T03:40:49;14.73;;;6.13;;
53245;SDS011;39569;51.090;-1.786;2023-07-09T03:43:16;47.75;;;7.45;;
53245;SDS011;39569;51.090;-1.786;2023-07-09T03:45:43;46.55;;;7.97;;
53245;SDS011;39569;51.090;-1.786;2023-07-09T03:48:11;10.25;;;6.65;;
53245;SDS011;39569;51.090;-1.786;2023-07-09T03:50:39;34.35;;;6.15;;
53245;SDS011;39569;51.090;-1.786;2023-07-09T03:53:05;21.25;;;6.38;;
53245;SDS011;39569;51.090;-1.786;2023-07-09T03:55:32;18.73;;;6.72;;
53245;SDS011;39569;51.090;-1.786;2023-07-09T03:58:00;18.00;;;8.82;;
53245;SDS011;39569;51.090;-1.786;2023-07-09T04:00:28;18.92;;;7.63;;
53245;SDS011;39569;51.090;-1.786;2023-07-09T04:02:55;14.10;;;6.97;;
53245;SDS011;39569;51.090;-1.786;2023-07-09T04:05:22;11.93;;;7.05;;
53245;SDS011;39569;51.090;-1.786;2023-07-09T04:07:49;11.50;;;5.55;;
53245;SDS011;39569;51.090;-1.786;2023-07-09T04:10:16;15.25;;;5.55;;
53245;SDS011;39569;51.090;-1.786;2023-07-09T04:12:43;17.10;;;6.88;;
53245;SDS011;39569;51.090;-1.786;2023-07-09T04:15:12;11.18;;;5.82;;
53245;SDS011;39569;51.090;-1.786;2023-07-09T04:17:39;9.77;;;5.55;;
53245;SDS011;39569;51.090;-1.786;2023-07-09T04:20:07;7.60;;;5.00;;
53245;SDS011;39569;51.090;-1.786;2023-07-09T04:22:35;6.25;;;4.65;;
53245;SDS011;39569;51.090;-1.786;2023-07-09T04:25:02;11.05;;;5.50;;
53245;SDS011;39569;51.090;-1.786;2023-07-09T04:27:30;21.00;;;5.65;;
53245;SDS011;39569;51.090;-1.786;2023-07-09T04:29:57;18.25;;;5.80;;
53245;SDS011;39569;51.090;-1.786;2023-07-09T04:32:25;21.45;;;6.35;;
53245;SDS011;39569;51.090;-1.786;2023-07-09T04:34:52;13.05;;;5.90;;
53245;SDS011;39569;51.090;-1.786;2023-07-09T04:37:18;13.23;;;6.13;;
53245;SDS011;39569;51.090;-1.786;2023-07-09T04:39:45;20.77;;;5.43;;
53245;SDS011;39569;51.090;-1.786;2023-07-09T04:42:14;11.63;;;6.60;;
53245;SDS011;39569;51.090;-1.786;2023-07-09T04:44:43;17.80;;;6.53;;
53245;SDS011;39569;51.090;-1.786;2023-07-09T04:47:10;9.25;;;5.28;;
53245;SDS011;39569;51.090;-1.786;2023-07-09T04:49:39;7.85;;;5.00;;
53245;SDS011;39569;51.090;-1.786;2023-07-09T04:52:07;8.40;;;4.80;;
53245;SDS011;39569;51.090;-1.786;2023-07-09T04:54:36;13.95;;;6.13;;
53245;SDS011;39569;51.090;-1.786;2023-07-09T04:57:04;8.18;;;4.65;;
53245;SDS011;39569;51.090;-1.786;2023-07-09T04:59:32;14.10;;;6.25;;
53245;SDS011;39569;51.090;-1.786;2023-07-09T05:01:58;14.50;;;5.65;;
53245;SDS011;39569;51.090;-1.786;2023-07-09T05:04:25;17.38;;;5.80;;
53245;SDS011;39569;51.090;-1.786;2023-07-09T05:06:53;10.43;;;5.60;;
53245;SDS011;39569;51.090;-1.786;2023-07-09T05:09:20;9.13;;;5.28;;
53245;SDS011;39569;51.090;-1.786;2023-07-09T05:11:48;19.17;;;6.60;;
53245;SDS011;39569;51.090;-1.786;2023-07-09T05:14:16;18.10;;;5.72;;
53245;SDS011;39569;51.090;-1.786;2023-07-09T05:16:43;19.70;;;5.95;;
53245;SDS011;39569;51.090;-1.786;2023-07-09T05:19:10;16.88;;;6.10;;
53245;SDS011;39569;51.090;-1.786;2023-07-09T05:21:37;18.25;;;6.05;;
53245;SDS011;39569;51.090;-1.786;2023-07-09T05:24:06;12.98;;;4.85;;
53245;SDS011;39569;51.090;-1.786;2023-07-09T05:26:33;10.15;;;4.80;;
53245;SDS011;39569;51.090;-1.786;2023-07-09T05:28:59;15.38;;;5.18;;
53245;SDS011;39569;51.090;-1.786;2023-07-09T05:31:28;16.58;;;5.18;;
53245;SDS011;39569;51.090;-1.786;2023-07-09T05:33:54;18.98;;;5.18;;
53245;SDS011;39569;51.090;-1.786;2023-07-09T05:36:21;6.63;;;3.50;;
53245;SDS011;39569;51.090;-1.786;2023-07-09T05:38:48;14.35;;;4.57;;
53245;SDS011;39569;51.090;-1.786;2023-07-09T05:41:16;6.28;;;3.83;;
53245;SDS011;39569;51.090;-1.786;2023-07-09T05:43:43;9.93;;;4.22;;
53245;SDS011;39569;51.090;-1.786;2023-07-09T05:46:10;13.05;;;3.50;;
53245;SDS011;39569;51.090;-1.786;2023-07-09T05:48:38;12.25;;;3.53;;
53245;SDS011;39569;51.090;-1.786;2023-07-09T05:51:04;7.95;;;3.05;;
53245;SDS011;39569;51.090;-1.786;2023-07-09T05:53:31;4.18;;;3.20;;
53245;SDS011;39569;51.090;-1.786;2023-07-09T05:55:58;7.22;;;3.75;;
53245;SDS011;39569;51.090;-1.786;2023-07-09T05:58:26;8.85;;;3.10;;
53245;SDS011;39569;51.090;-1.786;2023-07-09T06:00:53;3.20;;;2.90;;
53245;SDS011;39569;51.090;-1.786;2023-07-09T06:03:21;15.43;;;3.50;;
53245;SDS011;39569;51.090;-1.786;2023-07-09T06:05:49;9.38;;;2.88;;
53245;SDS011;39569;51.090;-1.786;2023-07-09T06:08:17;6.03;;;3.28;;
53245;SDS011;39569;51.090;-1.786;2023-07-09T06:10:50;6.53;;;2.97;;
53245;SDS011;39569;51.090;-1.786;2023-07-09T06:13:18;6.75;;;3.08;;
53245;SDS011;39569;51.090;-1.786;2023-07-09T06:15:48;7.32;;;2.97;;
53245;SDS011;39569;51.090;-1.786;2023-07-09T06:18:14;5.50;;;3.22;;
53245;SDS011;39569;51.090;-1.786;2023-07-09T06:20:45;13.85;;;3.10;;
53245;SDS011;39569;51.090;-1.786;2023-07-09T06:23:13;5.68;;;3.47;;
53245;SDS011;39569;51.090;-1.786;2023-07-09T06:25:39;3.88;;;3.08;;
53245;SDS011;39569;51.090;-1.786;2023-07-09T06:28:06;8.45;;;3.47;;
53245;SDS011;39569;51.090;-1.786;2023-07-09T06:30:33;5.18;;;3.25;;
53245;SDS011;39569;51.090;-1.786;2023-07-09T06:33:01;5.10;;;3.10;;
53245;SDS011;39569;51.090;-1.786;2023-07-09T06:35:28;9.38;;;4.07;;
53245;SDS011;39569;51.090;-1.786;2023-07-09T06:37:54;5.05;;;3.25;;
53245;SDS011;39569;51.090;-1.786;2023-07-09T06:40:21;3.78;;;2.88;;
53245;SDS011;39569;51.090;-1.786;2023-07-09T06:42:49;4.68;;;3.35;;
53245;SDS011;39569;51.090;-1.786;2023-07-09T06:45:16;4.05;;;2.97;;
53245;SDS011;39569;51.090;-1.786;2023-07-09T06:47:42;7.60;;;2.70;;
53245;SDS011;39569;51.090;-1.786;2023-07-09T06:50:11;9.90;;;4.50;;
53245;SDS011;39569;51.090;-1.786;2023-07-09T06:52:38;14.10;;;4.47;;
53245;SDS011;39569;51.090;-1.786;2023-07-09T06:55:05;26.02;;;4.53;;
53245;SDS011;39569;51.090;-1.786;2023-07-09T06:57:32;8.35;;;4.10;;
53245;SDS011;39569;51.090;-1.786;2023-07-09T06:59:59;10.80;;;3.95;;
53245;SDS011;39569;51.090;-1.786;2023-07-09T07:02:26;11.75;;;3.53;;
53245;SDS011;39569;51.090;-1.786;2023-07-09T07:04:53;6.00;;;3.85;;
53245;SDS011;39569;51.090;-1.786;2023-07-09T07:07:22;9.98;;;4.55;;
53245;SDS011;39569;51.090;-1.786;2023-07-09T07:09:48;3.75;;;3.45;;
53245;SDS011;39569;51.090;-1.786;2023-07-09T07:12:20;12.20;;;4.35;;
53245;SDS011;39569;51.090;-1.786;2023-07-09T07:14:50;21.38;;;5.28;;
53245;SDS011;39569;51.090;-1.786;2023-07-09T07:17:17;7.00;;;4.30;;
53245;SDS011;39569;51.090;-1.786;2023-07-09T07:19:44;6.22;;;5.32;;
53245;SDS011;39569;51.090;-1.786;2023-07-09T07:22:11;13.57;;;5.22;;
53245;SDS011;39569;51.090;-1.786;2023-07-09T07:24:39;6.60;;;5.28;;
53245;SDS011;39569;51.090;-1.786;2023-07-09T07:27:06;13.77;;;4.47;;
53245;SDS011;39569;51.090;-1.786;2023-07-09T07:29:34;7.32;;;4.88;;
53245;SDS011;39569;51.090;-1.786;2023-07-09T07:32:01;14.40;;;5.60;;
53245;SDS011;39569;51.090;-1.786;2023-07-09T07:34:27;8.75;;;5.30;;
53245;SDS011;39569;51.090;-1.786;2023-07-09T07:36:54;11.48;;;5.20;;
53245;SDS011;39569;51.090;-1.786;2023-07-09T07:39:21;17.25;;;5.05;;
53245;SDS011;39569;51.090;-1.786;2023-07-09T07:41:49;11.00;;;5.88;;
53245;SDS011;39569;51.090;-1.786;2023-07-09T07:44:16;7.22;;;3.95;;
53245;SDS011;39569;51.090;-1.786;2023-07-09T07:46:43;15.73;;;4.68;;
53245;SDS011;39569;51.090;-1.786;2023-07-09T07:49:11;6.88;;;3.63;;
53245;SDS011;39569;51.090;-1.786;2023-07-09T07:51:38;17.95;;;4.47;;
53245;SDS011;39569;51.090;-1.786;2023-07-09T07:54:05;15.63;;;4.45;;
53245;SDS011;39569;51.090;-1.786;2023-07-09T07:56:35;8.57;;;4.38;;
53245;SDS011;39569;51.090;-1.786;2023-07-09T07:59:03;4.20;;;3.08;;
53245;SDS011;39569;51.090;-1.786;2023-07-09T08:01:30;14.05;;;5.18;;
53245;SDS011;39569;51.090;-1.786;2023-07-09T08:03:56;15.70;;;4.88;;
53245;SDS011;39569;51.090;-1.786;2023-07-09T08:06:23;22.17;;;5.50;;
53245;SDS011;39569;51.090;-1.786;2023-07-09T08:08:50;8.82;;;4.18;;
53245;SDS011;39569;51.090;-1.786;2023-07-09T08:11:17;11.07;;;4.93;;
53245;SDS011;39569;51.090;-1.786;2023-07-09T08:13:44;10.95;;;5.53;;
53245;SDS011;39569;51.090;-1.786;2023-07-09T08:16:12;23.48;;;7.22;;
53245;SDS011;39569;51.090;-1.786;2023-07-09T08:18:38;12.70;;;5.50;;
53245;SDS011;39569;51.090;-1.786;2023-07-09T08:21:05;8.75;;;4.80;;
53245;SDS011;39569;51.090;-1.786;2023-07-09T08:23:32;12.95;;;4.50;;
53245;SDS011;39569;51.090;-1.786;2023-07-09T08:26:00;11.43;;;5.28;;
53245;SDS011;39569;51.090;-1.786;2023-07-09T08:28:28;14.50;;;4.55;;
53245;SDS011;39569;51.090;-1.786;2023-07-09T08:30:55;11.68;;;4.97;;
53245;SDS011;39569;51.090;-1.786;2023-07-09T08:33:23;7.07;;;3.72;;
53245;SDS011;39569;51.090;-1.786;2023-07-09T08:35:51;17.40;;;5.28;;
53245;SDS011;39569;51.090;-1.786;2023-07-09T08:38:19;26.02;;;5.70;;
53245;SDS011;39569;51.090;-1.786;2023-07-09T08:40:49;13.93;;;4.65;;
53245;SDS011;39569;51.090;-1.786;2023-07-09T08:43:22;10.45;;;4.82;;
53245;SDS011;39569;51.090;-1.786;2023-07-09T08:46:01;20.02;;;4.90;;
53245;SDS011;39569;51.090;-1.786;2023-07-09T08:48:35;10.57;;;5.27;;
53245;SDS011;39569;51.090;-1.786;2023-07-09T08:51:07;14.13;;;5.55;;
53245;SDS011;39569;51.090;-1.786;2023-07-09T08:53:39;12.20;;;5.43;;
53245;SDS011;39569;51.090;-1.786;2023-07-09T08:56:09;12.18;;;4.50;;
53245;SDS011;39569;51.090;-1.786;2023-07-09T08:58:36;13.98;;;4.65;;
53245;SDS011;39569;51.090;-1.786;2023-07-09T09:01:06;11.20;;;4.53;;
53245;SDS011;39569;51.090;-1.786;2023-07-09T09:03:45;11.13;;;4.00;;
53245;SDS011;39569;51.090;-1.786;2023-07-09T09:06:16;10.93;;;4.63;;
53245;SDS011;39569;51.090;-1.786;2023-07-09T09:08:49;12.93;;;4.40;;
53245;SDS011;39569;51.090;-1.786;2023-07-09T09:11:23;9.65;;;4.07;;
53245;SDS011;39569;51.090;-1.786;2023-07-09T09:14:00;11.63;;;4.45;;
53245;SDS011;39569;51.090;-1.786;2023-07-09T09:16:32;11.60;;;3.95;;
53245;SDS011;39569;51.090;-1.786;2023-07-09T09:19:05;10.27;;;3.53;;
53245;SDS011;39569;51.090;-1.786;2023-07-09T09:21:44;7.18;;;2.88;;
53245;SDS011;39569;51.090;-1.786;2023-07-09T09:24:14;8.68;;;3.40;;
53245;SDS011;39569;51.090;-1.786;2023-07-09T09:26:44;8.02;;;3.70;;
53245;SDS011;39569;51.090;-1.786;2023-07-09T09:29:11;11.13;;;3.78;;
53245;SDS011;39569;51.090;-1.786;2023-07-09T09:31:39;15.35;;;4.70;;
53245;SDS011;39569;51.090;-1.786;2023-07-09T09:34:18;11.23;;;3.42;;
53245;SDS011;39569;51.090;-1.786;2023-07-09T09:36:46;8.05;;;3.38;;
53245;SDS011;39569;51.090;-1.786;2023-07-09T09:39:13;9.88;;;3.00;;
53245;SDS011;39569;51.090;-1.786;2023-07-09T09:41:39;7.93;;;3.00;;
53245;SDS011;39569;51.090;-1.786;2023-07-09T09:44:14;8.00;;;4.50;;
53245;SDS011;39569;51.090;-1.786;2023-07-09T09:46:44;11.30;;;3.80;;
53245;SDS011;39569;51.090;-1.786;2023-07-09T09:49:11;14.18;;;3.55;;
53245;SDS011;39569;51.090;-1.786;2023-07-09T09:51:39;7.18;;;3.17;;
53245;SDS011;39569;51.090;-1.786;2023-07-09T09:54:11;12.57;;;4.28;;
53245;SDS011;39569;51.090;-1.786;2023-07-09T09:56:43;9.07;;;3.33;;
53245;SDS011;39569;51.090;-1.786;2023-07-09T09:59:13;11.40;;;3.72;;
53245;SDS011;39569;51.090;-1.786;2023-07-09T10:01:44;5.97;;;2.70;;
53245;SDS011;39569;51.090;-1.786;2023-07-09T10:04:15;7.10;;;3.67;;
53245;SDS011;39569;51.090;-1.786;2023-07-09T10:06:46;6.50;;;2.58;;
53245;SDS011;39569;51.090;-1.786;2023-07-09T10:09:19;11.98;;;3.65;;
53245;SDS011;39569;51.090;-1.786;2023-07-09T10:11:55;10.00;;;3.63;;
53245;SDS011;39569;51.090;-1.786;2023-07-09T10:14:31;8.35;;;3.60;;
53245;SDS011;39569;51.090;-1.786;2023-07-09T10:17:05;8.40;;;3.35;;
53245;SDS011;39569;51.090;-1.786;2023-07-09T10:19:43;3.75;;;2.60;;
53245;SDS011;39569;51.090;-1.786;2023-07-09T10:22:19;11.60;;;3.95;;
53245;SDS011;39569;51.090;-1.786;2023-07-09T10:25:01;15.00;;;4.35;;
53245;SDS011;39569;51.090;-1.786;2023-07-09T10:27:35;7.07;;;3.00;;
53245;SDS011;39569;51.090;-1.786;2023-07-09T10:30:29;4.43;;;3.28;;
53245;SDS011;39569;51.090;-1.786;2023-07-09T10:33:07;8.18;;;2.80;;
53245;SDS011;39569;51.090;-1.786;2023-07-09T10:35:37;7.03;;;3.15;;
53245;SDS011;39569;51.090;-1.786;2023-07-09T10:38:18;5.07;;;2.42;;
53245;SDS011;39569;51.090;-1.786;2023-07-09T10:40:53;4.05;;;2.42;;
53245;SDS011;39569;51.090;-1.786;2023-07-09T10:43:25;10.27;;;3.92;;
53245;SDS011;39569;51.090;-1.786;2023-07-09T10:46:01;14.50;;;3.53;;
53245;SDS011;39569;51.090;-1.786;2023-07-09T10:48:34;4.55;;;2.25;;
53245;SDS011;39569;51.090;-1.786;2023-07-09T10:51:04;8.00;;;3.30;;
53245;SDS011;39569;51.090;-1.786;2023-07-09T10:53:50;17.35;;;2.55;;
53245;SDS011;39569;51.090;-1.786;2023-07-09T10:56:23;9.55;;;4.25;;
53245;SDS011;39569;51.090;-1.786;2023-07-09T10:58:53;10.55;;;3.70;;
53245;SDS011;39569;51.090;-1.786;2023-07-09T11:01:29;9.13;;;3.45;;
53245;SDS011;39569;51.090;-1.786;2023-07-09T11:03:59;9.43;;;3.75;;
53245;SDS011;39569;51.090;-1.786;2023-07-09T11:06:31;14.20;;;3.65;;
53245;SDS011;39569;51.090;-1.786;2023-07-09T11:09:06;7.40;;;3.75;;
53245;SDS011;39569;51.090;-1.786;2023-07-09T11:11:42;5.80;;;2.65;;
53245;SDS011;39569;51.090;-1.786;2023-07-09T11:14:17;7.55;;;3.92;;
53245;SDS011;39569;51.090;-1.786;2023-07-09T11:16:52;10.13;;;4.05;;
53245;SDS011;39569;51.090;-1.786;2023-07-09T11:19:22;13.73;;;3.70;;
53245;SDS011;39569;51.090;-1.786;2023-07-09T11:21:57;10.73;;;3.85;;
53245;SDS011;39569;51.090;-1.786;2023-07-09T11:24:31;11.10;;;4.28;;
53245;SDS011;39569;51.090;-1.786;2023-07-09T11:27:00;8.30;;;3.20;;
53245;SDS011;39569;51.090;-1.786;2023-07-09T11:29:27;5.65;;;3.40;;
53245;SDS011;39569;51.090;-1.786;2023-07-09T11:32:06;8.02;;;3.40;;
53245;SDS011;39569;51.090;-1.786;2023-07-09T11:34:35;7.07;;;2.58;;
53245;SDS011;39569;51.090;-1.786;2023-07-09T11:37:11;8.32;;;3.65;;
53245;SDS011;39569;51.090;-1.786;2023-07-09T11:39:44;6.78;;;3.08;;
53245;SDS011;39569;51.090;-1.786;2023-07-09T11:42:23;6.78;;;2.67;;
53245;SDS011;39569;51.090;-1.786;2023-07-09T11:44:52;6.85;;;2.78;;
53245;SDS011;39569;51.090;-1.786;2023-07-09T11:47:24;14.77;;;4.30;;
53245;SDS011;39569;51.090;-1.786;2023-07-09T11:49:54;12.30;;;2.67;;
53245;SDS011;39569;51.090;-1.786;2023-07-09T11:52:25;5.63;;;3.08;;
53245;SDS011;39569;51.090;-1.786;2023-07-09T11:54:58;5.07;;;2.90;;
53245;SDS011;39569;51.090;-1.786;2023-07-09T11:57:28;4.47;;;2.22;;
53245;SDS011;39569;51.090;-1.786;2023-07-09T11:59:58;8.43;;;3.25;;
53245;SDS011;39569;51.090;-1.786;2023-07-09T12:02:26;8.38;;;2.97;;
53245;SDS011;39569;51.090;-1.786;2023-07-09T12:04:59;6.47;;;3.03;;
53245;SDS011;39569;51.090;-1.786;2023-07-09T12:07:28;5.13;;;2.63;;
53245;SDS011;39569;51.090;-1.786;2023-07-09T12:09:55;8.77;;;2.97;;
53245;SDS011;39569;51.090;-1.786;2023-07-09T12:12:24;5.20;;;3.20;;
53245;SDS011;39569;51.090;-1.786;2023-07-09T12:14:53;11.32;;;2.88;;
53245;SDS011;39569;51.090;-1.786;2023-07-09T12:17:22;8.25;;;2.90;;
53245;SDS011;39569;51.090;-1.786;2023-07-09T12:19:53;6.25;;;2.60;;
53245;SDS011;39569;51.090;-1.786;2023-07-09T12:22:21;10.57;;;3.72;;
53245;SDS011;39569;51.090;-1.786;2023-07-09T12:24:49;7.40;;;2.28;;
53245;SDS011;39569;51.090;-1.786;2023-07-09T12:27:18;8.48;;;2.90;;
53245;SDS011;39569;51.090;-1.786;2023-07-09T12:29:49;1.73;;;1.55;;
53245;SDS011;39569;51.090;-1.786;2023-07-09T12:32:17;9.80;;;2.97;;
53245;SDS011;39569;51.090;-1.786;2023-07-09T12:34:50;7.20;;;3.40;;
53245;SDS011;39569;51.090;-1.786;2023-07-09T12:37:18;8.55;;;3.85;;
53245;SDS011;39569;51.090;-1.786;2023-07-09T12:39:45;2.55;;;2.10;;
53245;SDS011;39569;51.090;-1.786;2023-07-09T12:42:14;5.85;;;2.38;;
53245;SDS011;39569;51.090;-1.786;2023-07-09T12:44:43;6.93;;;2.63;;
53245;SDS011;39569;51.090;-1.786;2023-07-09T12:47:13;7.22;;;3.13;;
53245;SDS011;39569;51.090;-1.786;2023-07-09T12:49:41;6.45;;;2.70;;
53245;SDS011;39569;51.090;-1.786;2023-07-09T12:52:12;11.25;;;2.30;;
53245;SDS011;39569;51.090;-1.786;2023-07-09T12:54:51;13.77;;;3.20;;
53245;SDS011;39569;51.090;-1.786;2023-07-09T12:57:18;7.18;;;2.85;;
53245;SDS011;39569;51.090;-1.786;2023-07-09T12:59:46;5.85;;;1.85;;
53245;SDS011;39569;51.090;-1.786;2023-07-09T13:02:16;9.50;;;3.17;;
53245;SDS011;39569;51.090;-1.786;2023-07-09T13:04:44;5.40;;;3.22;;
53245;SDS011;39569;51.090;-1.786;2023-07-09T13:07:25;4.97;;;2.65;;
53245;SDS011;39569;51.090;-1.786;2023-07-09T13:09:54;12.40;;;3.70;;
53245;SDS011;39569;51.090;-1.786;2023-07-09T13:12:28;8.23;;;3.03;;
53245;SDS011;39569;51.090;-1.786;2023-07-09T13:14:57;2.38;;;1.85;;
53245;SDS011;39569;51.090;-1.786;2023-07-09T13:17:27;4.78;;;2.03;;
53245;SDS011;39569;51.090;-1.786;2023-07-09T13:19:55;9.93;;;2.22;;
53245;SDS011;39569;51.090;-1.786;2023-07-09T13:22:22;10.90;;;3.67;;
53245;SDS011;39569;51.090;-1.786;2023-07-09T13:24:49;2.60;;;2.30;;
53245;SDS011;39569;51.090;-1.786;2023-07-09T13:27:16;11.68;;;2.58;;
53245;SDS011;39569;51.090;-1.786;2023-07-09T13:29:43;6.65;;;2.30;;
53245;SDS011;39569;51.090;-1.786;2023-07-09T13:32:09;5.50;;;2.30;;
53245;SDS011;39569;51.090;-1.786;2023-07-09T13:34:39;5.53;;;3.20;;
53245;SDS011;39569;51.090;-1.786;2023-07-09T13:37:06;3.60;;;2.22;;
53245;SDS011;39569;51.090;-1.786;2023-07-09T13:39:37;10.48;;;3.58;;
53245;SDS011;39569;51.090;-1.786;2023-07-09T13:42:05;3.13;;;2.35;;
53245;SDS011;39569;51.090;-1.786;2023-07-09T13:44:35;4.82;;;2.22;;
53245;SDS011;39569;51.090;-1.786;2023-07-09T13:47:02;5.00;;;2.88;;
53245;SDS011;39569;51.090;-1.786;2023-07-09T13:49:30;6.60;;;3.65;;
53245;SDS011;39569;51.090;-1.786;2023-07-09T13:51:59;10.85;;;3.60;;
53245;SDS011;39569;51.090;-1.786;2023-07-09T13:54:27;3.55;;;2.45;;
53245;SDS011;39569;51.090;-1.786;2023-07-09T13:57:00;6.40;;;2.25;;
53245;SDS011;39569;51.090;-1.786;2023-07-09T13:59:27;11.52;;;3.17;;
53245;SDS011;39569;51.090;-1.786;2023-07-09T14:01:56;6.63;;;3.05;;
53245;SDS011;39569;51.090;-1.786;2023-07-09T14:04:25;6.30;;;3.15;;
53245;SDS011;39569;51.090;-1.786;2023-07-09T14:06:53;5.70;;;2.17;;
53245;SDS011;39569;51.090;-1.786;2023-07-09T14:09:21;2.50;;;2.03;;
53245;SDS011;39569;51.090;-1.786;2023-07-09T14:11:49;4.47;;;2.83;;
53245;SDS011;39569;51.090;-1.786;2023-07-09T14:14:18;5.65;;;3.42;;
53245;SDS011;39569;51.090;-1.786;2023-07-09T14:16:46;4.97;;;2.67;;
53245;SDS011;39569;51.090;-1.786;2023-07-09T14:19:14;12.50;;;3.30;;
53245;SDS011;39569;51.090;-1.786;2023-07-09T14:21:42;2.53;;;1.80;;
53245;SDS011;39569;51.090;-1.786;2023-07-09T14:24:16;5.15;;;1.85;;
53245;SDS011;39569;51.090;-1.786;2023-07-09T14:26:47;13.82;;;2.63;;
53245;SDS011;39569;51.090;-1.786;2023-07-09T14:29:14;6.68;;;1.92;;
53245;SDS011;39569;51.090;-1.786;2023-07-09T14:31:43;2.50;;;2.15;;
53245;SDS011;39569;51.090;-1.786;2023-07-09T14:34:16;4.13;;;2.22;;
53245;SDS011;39569;51.090;-1.786;2023-07-09T14:36:46;5.18;;;2.17;;
53245;SDS011;39569;51.090;-1.786;2023-07-09T14:39:13;5.22;;;2.05;;